Time;durP1;ratioP1;P1;durP2;ratioP2;P2;SDS_P1;SDS_P2;PMS_P1;PMS_P2;Temp;Humidity;BMP_temperature;BMP_pressure;BME280_temperature;BME280_humidity;BME280_pressure;Samples;Min_cycle;Max_cycle;Signal;HPM_P1;HPM_P2
2022/09/06 00:53:07;;;;;;;6.57;3.95;;;15.70;99.90;;;;;;5810490;23;20054;-79
2022/09/06 00:55:33;;;;;;;7.65;3.72;;;15.60;99.90;;;;;;4956685;28;20036;-80
2022/09/06 00:57:59;;;;;;;7.05;3.97;;;15.60;99.90;;;;;;4955497;29;20098;-79
2022/09/06 01:00:25;;;;;;;5.80;4.07;;;15.50;99.90;;;;;;4956449;28;20027;-80
2022/09/06 01:02:52;;;;;;;5.38;3.90;;;15.50;99.90;;;;;;4959334;28;20079;-79
2022/09/06 01:05:18;;;;;;;7.10;4.10;;;15.40;99.90;;;;;;4972648;28;20490;-80
2022/09/06 01:07:44;;;;;;;6.32;3.80;;;15.40;99.90;;;;;;4972685;28;20105;-79
2022/09/06 01:10:12;;;;;;;8.50;4.40;;;15.40;99.90;;;;;;4972272;28;20121;-79
2022/09/06 01:12:49;;;;;;;8.32;4.43;;;15.40;99.90;;;;;;4972484;28;20034;-80
2022/09/06 01:15:32;;;;;;;6.38;4.30;;;15.40;99.90;;;;;;4972515;28;20015;-80
2022/09/06 01:18:06;;;;;;;6.28;4.00;;;15.40;99.90;;;;;;4972253;28;20428;-79
2022/09/06 01:20:51;;;;;;;7.40;4.18;;;15.40;99.90;;;;;;4972673;28;20015;-80
2022/09/06 01:23:35;;;;;;;8.45;4.13;;;15.40;99.90;;;;;;4962726;28;20023;-80
2022/09/06 01:26:25;;;;;;;7.82;4.25;;;15.40;99.90;;;;;;4963449;28;20046;-80
2022/09/06 01:28:52;;;;;;;6.45;4.15;;;15.50;99.90;;;;;;4965379;28;20097;-81
2022/09/06 01:31:46;;;;;;;5.22;4.15;;;15.40;99.90;;;;;;4972258;28;20558;-80
2022/09/06 01:34:15;;;;;;;6.65;3.88;;;15.40;99.90;;;;;;4962809;28;20058;-80
2022/09/06 01:37:04;;;;;;;5.55;4.05;;;15.30;99.90;;;;;;4972607;28;20101;-80
2022/09/06 01:39:32;;;;;;;6.22;4.03;;;15.20;99.90;;;;;;4961685;28;20033;-80
2022/09/06 01:42:18;;;;;;;8.93;4.28;;;15.10;99.90;;;;;;4971776;28;20080;-80
2022/09/06 01:44:50;;;;;;;9.20;3.88;;;15.10;99.90;;;;;;4971889;28;20042;-79
2022/09/06 01:47:18;;;;;;;;;;;15.10;99.90;;;;;;4965659;28;20093;-80
2022/09/06 01:50:08;;;;;;;5.65;3.80;;;15.00;99.90;;;;;;4971857;28;19910;-80
2022/09/06 02:54:45;;;;;;;23.45;4.45;;;14.30;99.90;;;;;;5075275;23;19950;-79
2022/09/06 02:57:10;;;;;;;5.30;3.58;;;14.30;99.90;;;;;;4971684;28;20039;-79
2022/09/06 02:59:37;;;;;;;4.50;3.17;;;14.20;99.90;;;;;;4971196;28;20031;-79
2022/09/06 03:02:02;;;;;;;10.50;4.18;;;14.10;99.90;;;;;;4971265;28;20396;-80
2022/09/06 03:04:28;;;;;;;9.95;3.47;;;14.10;99.90;;;;;;4970455;28;20027;-79
2022/09/06 03:06:55;;;;;;;7.78;3.65;;;14.10;99.90;;;;;;4971019;28;20030;-79
2022/09/06 03:09:20;;;;;;;5.32;3.58;;;14.10;99.90;;;;;;4974420;28;20023;-79
2022/09/06 03:11:46;;;;;;;6.20;3.40;;;14.00;99.90;;;;;;4974476;28;20400;-79
2022/09/06 03:14:12;;;;;;;7.35;3.70;;;14.00;99.90;;;;;;4974139;28;20034;-79
2022/09/06 03:16:38;;;;;;;4.35;2.95;;;14.00;99.90;;;;;;4974950;28;20027;-79
2022/09/06 03:19:03;;;;;;;8.10;3.80;;;14.00;99.90;;;;;;4974431;28;20022;-79
2022/09/06 03:21:29;;;;;;;5.80;3.35;;;14.00;99.90;;;;;;4974302;28;20030;-79
2022/09/06 03:23:55;;;;;;;5.93;3.55;;;14.00;99.90;;;;;;4972007;28;20438;-79
2022/09/06 03:26:20;;;;;;;6.53;3.47;;;14.00;99.90;;;;;;4974207;28;20074;-79
2022/09/06 03:28:46;;;;;;;8.02;3.60;;;13.90;99.90;;;;;;4974307;28;20031;-79
2022/09/06 03:31:12;;;;;;;5.47;3.58;;;13.90;99.90;;;;;;4974748;28;20081;-79
2022/09/06 03:33:38;;;;;;;9.32;3.90;;;13.90;99.90;;;;;;4974258;28;20479;-79
2022/09/06 03:36:03;;;;;;;6.07;3.17;;;13.80;99.90;;;;;;4973224;28;20030;-80
2022/09/06 03:38:29;;;;;;;7.20;3.95;;;13.80;99.90;;;;;;4974476;28;20037;-79
2022/09/06 03:40:55;;;;;;;10.68;3.63;;;13.80;99.90;;;;;;4974439;28;20435;-79
2022/09/06 03:43:23;;;;;;;6.80;3.70;;;13.70;99.90;;;;;;4974226;28;20416;-79
2022/09/06 03:45:53;;;;;;;5.47;3.13;;;13.70;99.90;;;;;;4974489;28;20027;-80
2022/09/06 03:48:21;;;;;;;5.13;3.60;;;13.70;99.90;;;;;;4962242;28;20049;-80
2022/09/06 03:50:52;;;;;;;6.07;3.47;;;13.70;99.90;;;;;;4973989;28;20015;-79
2022/09/06 04:52:51;;;;;;;8.10;4.03;;;13.30;99.90;;;;;;6045979;23;20025;-79
2022/09/06 04:55:16;;;;;;;11.90;3.70;;;13.30;99.90;;;;;;4964401;28;20424;-79
2022/09/06 04:57:42;;;;;;;9.13;3.65;;;13.30;99.90;;;;;;4973079;28;20105;-79
2022/09/06 05:00:08;;;;;;;6.60;4.82;;;13.30;99.90;;;;;;4973317;28;20513;-79
2022/09/06 05:02:34;;;;;;;5.95;3.88;;;13.30;99.90;;;;;;4971704;28;20019;-79
2022/09/06 05:05:00;;;;;;;7.80;3.72;;;13.30;99.90;;;;;;4972545;28;20098;-79
2022/09/06 05:07:25;;;;;;;7.25;4.05;;;13.40;99.90;;;;;;4973077;28;20030;-79
2022/09/06 05:09:51;;;;;;;5.25;3.58;;;13.40;99.90;;;;;;4972595;28;20031;-79
2022/09/06 05:12:17;;;;;;;6.97;3.83;;;13.50;99.90;;;;;;4972374;28;20541;-79
2022/09/06 05:14:42;;;;;;;8.02;4.35;;;13.50;99.90;;;;;;4972516;28;20103;-79
2022/09/06 05:17:08;;;;;;;6.32;4.22;;;13.50;99.90;;;;;;4972613;28;20395;-79
2022/09/06 05:19:34;;;;;;;8.45;4.40;;;13.60;99.90;;;;;;4972409;28;20027;-79
2022/09/06 05:21:59;;;;;;;10.82;5.20;;;13.60;99.90;;;;;;4972466;28;20027;-79
2022/09/06 05:24:25;;;;;;;8.32;4.93;;;13.80;99.90;;;;;;4969206;28;20022;-79
2022/09/06 05:26:51;;;;;;;15.48;4.55;;;14.00;99.90;;;;;;4971757;28;20023;-81
2022/09/06 05:29:17;;;;;;;11.52;4.05;;;14.70;99.90;;;;;;4971846;28;20023;-79
2022/09/06 05:31:42;;;;;;;14.55;4.53;;;15.30;99.90;;;;;;4972125;28;20029;-79
2022/09/06 05:34:09;;;;;;;19.05;4.80;;;15.70;99.90;;;;;;4972195;28;20607;-79
2022/09/06 05:36:35;;;;;;;16.25;3.95;;;15.90;99.90;;;;;;4972091;28;20019;-79
2022/09/06 05:39:00;;;;;;;10.80;3.95;;;16.00;99.90;;;;;;4972477;28;20033;-79
2022/09/06 05:41:26;;;;;;;9.20;3.58;;;16.10;99.90;;;;;;4972173;28;20031;-79
2022/09/06 05:43:52;;;;;;;17.13;4.30;;;16.40;99.90;;;;;;4972037;28;20129;-79
2022/09/06 05:46:18;;;;;;;14.63;3.70;;;16.50;99.90;;;;;;4972667;28;20019;-80
2022/09/06 05:49:03;;;;;;;16.75;3.58;;;16.60;99.90;;;;;;4971976;28;20034;-81
2022/09/06 05:51:30;;;;;;;17.15;3.22;;;16.60;99.90;;;;;;4965152;28;20019;-80
2022/09/06 06:54:36;;;;;;;12.60;2.35;;;17.50;99.90;;;;;;5260116;23;20571;-82
2022/09/06 06:57:03;;;;;;;10.48;2.20;;;17.50;99.90;;;;;;4974747;28;20023;-80
2022/09/06 06:59:29;;;;;;;9.68;2.20;;;17.50;99.90;;;;;;4974607;28;20472;-79
2022/09/06 07:01:55;;;;;;;7.95;2.38;;;17.50;99.90;;;;;;4975337;28;20035;-79
2022/09/06 07:04:20;;;;;;;11.77;2.38;;;17.50;99.90;;;;;;4974651;28;20018;-79
2022/09/06 07:06:54;;;;;;;16.33;2.97;;;17.50;99.90;;;;;;4974787;28;20527;-80
2022/09/06 07:09:20;;;;;;;9.45;2.50;;;17.60;99.90;;;;;;4974832;28;20029;-79
2022/09/06 07:11:50;;;;;;;12.32;2.58;;;17.60;99.90;;;;;;4974660;28;20026;-80
2022/09/06 07:14:16;;;;;;;11.63;2.80;;;17.70;99.90;;;;;;4974309;28;20029;-79
2022/09/06 07:16:42;;;;;;;15.23;2.40;;;17.70;99.90;;;;;;4974502;28;20047;-78
2022/09/06 07:19:08;;;;;;;9.63;2.35;;;17.80;99.90;;;;;;4975046;28;20027;-79
2022/09/06 07:21:34;;;;;;;8.10;2.58;;;17.80;99.90;;;;;;4974599;28;20023;-79
2022/09/06 07:24:00;;;;;;;19.98;3.13;;;17.80;99.90;;;;;;4972738;28;20027;-79
2022/09/06 07:26:28;;;;;;;9.02;2.33;;;17.80;99.90;;;;;;4974587;28;20476;-79
2022/09/06 07:28:56;;;;;;;12.48;2.45;;;17.90;99.90;;;;;;4974150;28;20042;-79
2022/09/06 07:31:22;;;;;;;15.32;3.03;;;18.00;99.90;;;;;;4974179;28;20023;-79
2022/09/06 07:33:48;;;;;;;15.30;2.95;;;18.00;99.90;;;;;;4973617;28;20043;-79
2022/09/06 07:36:14;;;;;;;10.55;2.15;;;18.10;99.90;;;;;;4972724;28;20387;-79
2022/09/06 07:38:40;;;;;;;3.80;1.80;;;18.30;99.90;;;;;;4973735;28;20031;-79
2022/09/06 07:41:08;;;;;;;12.07;2.03;;;18.40;99.90;;;;;;4973383;28;20023;-79
2022/09/06 07:43:34;;;;;;;10.68;2.10;;;18.60;99.90;;;;;;4974480;28;20015;-79
2022/09/06 07:46:09;;;;;;;9.95;2.20;;;18.80;99.90;;;;;;4974161;28;20033;-79
2022/09/06 07:48:37;;;;;;;16.65;2.50;;;19.10;99.90;;;;;;4973506;28;20435;-79
2022/09/06 07:51:06;;;;;;;9.88;1.85;;;19.30;99.90;;;;;;4973783;28;20679;-79
2022/09/06 08:53:15;;;;;;;15.07;1.98;;;21.70;99.90;;;;;;6016683;23;20006;-76
2022/09/06 08:55:48;;;;;;;15.45;3.45;;;22.10;99.90;;;;;;4932141;29;20032;-76
2022/09/06 08:58:36;;;;;;;7.10;1.60;;;22.20;99.90;;;;;;4934570;29;20026;-75
2022/09/06 09:01:17;;;;;;;11.15;1.75;;;22.10;99.90;;;;;;4933971;29;20105;-76
2022/09/06 09:03:44;;;;;;;10.30;2.30;;;22.30;99.90;;;;;;4929500;29;20052;-76
2022/09/06 09:06:10;;;;;;;8.90;1.85;;;22.40;99.90;;;;;;4927151;29;20515;-77
2022/09/06 09:08:48;;;;;;;9.15;1.52;;;22.40;99.90;;;;;;4934234;29;20035;-76
2022/09/06 09:11:18;;;;;;;10.38;1.45;;;22.70;99.90;;;;;;4934127;29;20551;-76
2022/09/06 09:13:58;;;;;;;9.95;1.60;;;23.00;99.90;;;;;;4927561;29;20126;-76
2022/09/06 09:16:24;;;;;;;11.93;1.50;;;23.00;99.90;;;;;;4934075;29;20528;-76
2022/09/06 09:19:00;;;;;;;10.98;1.52;;;22.90;99.90;;;;;;4934101;29;20119;-76
2022/09/06 09:21:27;;;;;;;8.30;1.90;;;22.80;99.90;;;;;;4933861;29;20098;-76
2022/09/06 09:23:57;;;;;;;8.93;1.67;;;22.90;99.90;;;;;;4931100;29;20031;-76
2022/09/06 09:26:25;;;;;;;13.20;1.80;;;22.90;99.90;;;;;;4934110;29;20007;-75
2022/09/06 09:29:12;;;;;;;9.30;1.63;;;22.80;99.90;;;;;;4934415;29;20491;-75
2022/09/06 09:31:39;;;;;;;11.38;1.83;;;22.50;99.90;;;;;;4933820;29;20384;-76
2022/09/06 09:34:09;;;;;;;12.40;1.55;;;22.20;99.90;;;;;;4933897;29;20031;-76
2022/09/06 09:36:35;;;;;;;9.48;1.73;;;22.20;99.90;;;;;;4927779;29;20031;-76
2022/09/06 09:39:10;;;;;;;7.20;1.70;;;22.30;99.90;;;;;;4933343;29;20131;-74
2022/09/06 09:41:40;;;;;;;8.23;1.20;;;22.30;99.90;;;;;;4933870;29;20358;-77
2022/09/06 09:44:28;;;;;;;8.93;1.33;;;22.60;99.90;;;;;;4934017;29;20119;-77
2022/09/06 09:46:54;;;;;;;12.13;2.28;;;23.10;99.90;;;;;;4932490;29;20027;-77
2022/09/06 09:49:23;;;;;;;9.57;1.30;;;23.50;96.60;;;;;;4933148;29;20027;-76
2022/09/06 09:52:13;;;;;;;12.55;1.48;;;23.80;92.80;;;;;;4934289;29;20031;-76
2022/09/06 11:55:37;;;;;;;8.73;1.30;;;27.90;61.00;;;;;;4951274;23;20075;-77
2022/09/06 11:58:27;;;;;;;9.88;1.42;;;29.20;61.60;;;;;;4954622;28;20030;-77
2022/09/06 12:01:11;;;;;;;9.67;1.20;;;32.20;49.50;;;;;;4954939;28;20023;-76
2022/09/06 12:03:46;;;;;;;9.35;1.40;;;32.70;44.50;;;;;;4942555;28;20029;-76
2022/09/06 12:06:26;;;;;;;8.30;1.40;;;31.70;46.80;;;;;;4954724;28;20059;-77
2022/09/06 12:08:54;;;;;;;5.93;1.20;;;30.40;48.50;;;;;;4954489;28;20092;-77
2022/09/06 12:11:36;;;;;;;12.27;1.67;;;29.90;49.80;;;;;;4954974;28;20112;-77
2022/09/06 12:14:06;;;;;;;9.73;1.23;;;30.50;50.40;;;;;;4954654;28;20114;-77
2022/09/06 12:17:00;;;;;;;10.02;1.45;;;31.10;49.30;;;;;;4954994;28;20063;-76
2022/09/06 12:19:45;;;;;;;7.22;1.00;;;31.50;47.20;;;;;;4947849;28;20559;-77
2022/09/06 12:22:27;;;;;;;6.07;1.55;;;30.30;49.80;;;;;;4953519;28;20027;-76
2022/09/06 12:25:01;;;;;;;9.32;1.55;;;29.80;51.00;;;;;;4947522;28;20079;-77
2022/09/06 12:27:43;;;;;;;7.38;1.30;;;29.50;52.30;;;;;;4954372;28;20042;-76
2022/09/06 12:30:11;;;;;;;8.70;1.27;;;28.80;53.40;;;;;;4954616;28;20027;-77
2022/09/06 12:32:42;;;;;;;7.80;1.25;;;28.70;54.40;;;;;;4949918;28;20110;-77
2022/09/06 12:35:21;;;;;;;8.45;1.50;;;29.40;53.80;;;;;;4952878;28;20082;-77
2022/09/06 12:37:58;;;;;;;5.70;1.40;;;29.90;52.90;;;;;;4954237;28;20033;-77
2022/09/06 12:40:46;;;;;;;12.52;1.30;;;31.80;48.20;;;;;;4953412;28;20631;-76
2022/09/06 12:43:15;;;;;;;9.70;1.33;;;32.60;45.80;;;;;;4953859;28;20040;-76
2022/09/06 12:45:43;;;;;;;10.57;1.55;;;31.50;47.00;;;;;;4954307;28;20027;-76
2022/09/06 12:48:32;;;;;;;6.82;1.20;;;31.50;47.00;;;;;;4953061;28;20023;-77
2022/09/06 12:51:18;;;;;;;6.50;1.20;;;30.40;48.40;;;;;;4954330;28;20078;-76
2022/09/06 13:53:20;;;;;;;7.60;1.75;;;33.70;40.10;;;;;;6057130;23;20264;-76
2022/09/06 13:55:46;;;;;;;7.82;1.30;;;32.90;40.80;;;;;;4948117;28;20102;-76
2022/09/06 13:58:11;;;;;;;14.50;1.85;;;31.90;42.60;;;;;;4953438;28;20392;-76
2022/09/06 14:00:40;;;;;;;12.35;1.85;;;30.80;44.10;;;;;;4952915;28;20019;-76
2022/09/06 14:03:07;;;;;;;7.60;1.70;;;31.20;45.90;;;;;;4952806;28;20024;-75
2022/09/06 14:05:37;;;;;;;10.02;1.25;;;30.40;46.90;;;;;;4952875;28;20070;-75
2022/09/06 14:08:03;;;;;;;14.00;1.73;;;30.60;46.60;;;;;;4953184;28;20011;-76
2022/09/06 14:10:29;;;;;;;12.85;2.80;;;30.70;47.40;;;;;;4952137;28;20110;-75
2022/09/06 14:12:55;;;;;;;9.82;1.60;;;29.70;48.30;;;;;;4952608;28;20155;-76
2022/09/06 14:15:21;;;;;;;9.90;1.45;;;28.60;51.40;;;;;;4952369;28;20450;-76
2022/09/06 14:17:46;;;;;;;9.07;1.20;;;27.80;54.90;;;;;;4952355;28;20019;-76
2022/09/06 14:20:12;;;;;;;10.50;2.15;;;26.80;58.70;;;;;;4952664;28;20155;-75
2022/09/06 14:22:38;;;;;;;11.32;1.83;;;26.20;59.90;;;;;;4952980;28;20050;-75
2022/09/06 14:25:05;;;;;;;12.27;1.65;;;25.50;67.10;;;;;;4949694;28;20031;-75
2022/09/06 14:27:31;;;;;;;9.35;2.13;;;24.80;71.70;;;;;;4952241;28;20023;-75
2022/09/06 14:29:57;;;;;;;8.55;1.02;;;24.40;77.70;;;;;;4952482;28;20110;-75
2022/09/06 14:32:25;;;;;;;12.80;1.40;;;24.10;80.00;;;;;;4952526;28;20098;-76
2022/09/06 14:34:51;;;;;;;10.02;1.45;;;23.90;83.90;;;;;;4952083;28;20439;-74
2022/09/06 14:37:17;;;;;;;10.35;1.50;;;23.80;84.20;;;;;;4952841;28;20023;-75
2022/09/06 14:39:42;;;;;;;13.77;1.70;;;23.40;92.40;;;;;;4951914;28;20037;-75
2022/09/06 14:42:08;;;;;;;13.93;1.63;;;23.10;95.00;;;;;;4952513;28;20567;-75
2022/09/06 14:44:34;;;;;;;14.30;2.22;;;23.00;97.80;;;;;;4952440;28;20023;-75
2022/09/06 14:46:59;;;;;;;9.55;1.60;;;22.90;98.40;;;;;;4952099;28;20012;-76
2022/09/06 14:49:26;;;;;;;9.88;1.60;;;22.80;98.30;;;;;;4952293;28;20476;-75
2022/09/06 14:51:52;;;;;;;14.90;2.00;;;22.50;99.80;;;;;;4952557;28;20031;-75
2022/09/06 15:53:51;;;;;;;4.15;0.70;;;19.40;99.90;;;;;;5844908;23;20063;-76
2022/09/06 15:56:17;;;;;;;3.35;0.40;;;19.30;99.90;;;;;;4952125;28;20078;-76
2022/09/06 15:58:46;;;;;;;2.00;0.68;;;19.20;99.90;;;;;;4955118;28;20027;-76
2022/09/06 16:01:15;;;;;;;5.82;0.80;;;19.10;99.90;;;;;;4955036;28;20030;-76
2022/09/06 16:03:48;;;;;;;4.75;0.65;;;19.20;99.90;;;;;;4954955;28;20023;-76
2022/09/06 16:06:20;;;;;;;7.28;0.70;;;19.20;99.90;;;;;;4955510;28;20106;-76
2022/09/06 16:08:48;;;;;;;;;;;19.20;99.90;;;;;;4955242;28;20082;-76
2022/09/06 16:11:15;;;;;;;6.03;1.05;;;19.10;99.90;;;;;;4954993;28;20291;-76
2022/09/06 16:13:42;;;;;;;7.75;0.70;;;19.10;99.90;;;;;;4954545;28;20469;-76
2022/09/06 16:16:14;;;;;;;3.58;0.60;;;19.10;99.90;;;;;;4953378;28;20034;-77
2022/09/06 16:18:42;;;;;;;8.50;1.33;;;19.10;99.90;;;;;;4954727;28;20015;-76
2022/09/06 16:21:13;;;;;;;5.05;1.00;;;19.00;99.90;;;;;;4954712;28;20082;-77
2022/09/06 16:23:41;;;;;;;4.55;1.15;;;19.00;99.90;;;;;;4953003;28;20469;-76
2022/09/06 16:26:07;;;;;;;6.28;1.05;;;18.90;99.90;;;;;;4951296;28;20472;-76
2022/09/06 16:28:35;;;;;;;11.43;1.30;;;18.90;99.90;;;;;;4953127;29;20377;-77
2022/09/06 16:31:03;;;;;;;9.18;1.08;;;18.90;99.90;;;;;;4954418;28;20472;-76
2022/09/06 16:33:31;;;;;;;10.45;1.25;;;18.90;99.90;;;;;;4954578;28;20023;-76
2022/09/06 16:36:02;;;;;;;6.53;1.20;;;18.90;99.90;;;;;;4949351;28;20054;-76
2022/09/06 16:38:31;;;;;;;4.90;1.67;;;19.00;99.90;;;;;;4954065;28;20064;-76
2022/09/06 16:41:17;;;;;;;4.45;1.08;;;18.90;99.90;;;;;;4953735;28;20277;-76
2022/09/06 16:43:44;;;;;;;8.50;1.20;;;19.00;99.90;;;;;;4945480;28;20033;-76
2022/09/06 16:46:11;;;;;;;5.07;0.98;;;19.00;99.90;;;;;;4952661;28;20452;-77
2022/09/06 16:48:39;;;;;;;11.50;1.70;;;19.00;99.90;;;;;;4953806;28;20070;-77
2022/09/06 16:51:14;;;;;;;8.32;1.40;;;18.90;99.90;;;;;;4939469;29;20028;-78
2022/09/06 16:53:42;;;;;;;6.85;1.00;;;18.90;99.90;;;;;;4946834;28;20559;-78
2022/09/06 16:56:09;;;;;;;12.73;1.73;;;18.90;99.90;;;;;;4947428;28;20435;-79
2022/09/06 16:58:35;;;;;;;3.08;1.30;;;18.90;99.90;;;;;;4947444;28;20484;-78
2022/09/06 17:01:01;;;;;;;6.47;1.50;;;18.80;99.90;;;;;;4946970;28;20031;-76
2022/09/06 17:03:27;;;;;;;4.80;1.23;;;18.80;99.90;;;;;;4947138;28;20038;-78
2022/09/06 17:05:53;;;;;;;6.97;1.40;;;18.80;99.90;;;;;;4941298;28;20086;-78
2022/09/06 17:08:19;;;;;;;7.82;0.85;;;18.80;99.90;;;;;;4946762;28;20039;-77
2022/09/06 17:10:45;;;;;;;2.97;0.82;;;18.80;99.90;;;;;;4946303;28;20636;-79
2022/09/06 17:13:11;;;;;;;6.60;1.10;;;18.80;99.90;;;;;;4946526;28;20416;-78
2022/09/06 17:18:22;;;;;;;6.22;1.40;;;18.80;99.90;;;;;;4946479;29;20510;-80
2022/09/06 17:21:03;;;;;;;2.05;0.63;;;18.80;99.90;;;;;;4946424;28;20042;-78
2022/09/06 18:25:57;;;;;;;7.13;1.40;;;17.00;99.90;;;;;;5019472;23;20600;-81
2022/09/06 18:28:24;;;;;;;11.85;1.10;;;16.80;99.90;;;;;;4951241;28;20031;-81
2022/09/06 18:30:50;;;;;;;14.13;0.95;;;16.80;99.90;;;;;;4943401;28;20028;-81
2022/09/06 18:33:16;;;;;;;6.03;0.63;;;16.70;99.90;;;;;;4945126;28;20110;-80
2022/09/06 18:35:42;;;;;;;8.45;0.80;;;16.60;99.90;;;;;;4925223;28;20063;-80
2022/09/06 18:38:10;;;;;;;14.30;1.17;;;16.50;99.90;;;;;;4922801;29;20024;-80
2022/09/06 18:40:36;;;;;;;7.18;0.98;;;16.40;99.90;;;;;;4923178;29;20034;-81
2022/09/06 18:43:01;;;;;;;9.60;0.68;;;16.30;99.90;;;;;;4925431;28;20024;-81
2022/09/06 18:45:29;;;;;;;12.20;2.25;;;16.20;99.90;;;;;;4921338;29;20131;-81
2022/09/06 18:47:55;;;;;;;9.52;0.73;;;16.10;99.90;;;;;;4926024;29;20020;-80
2022/09/06 18:50:21;;;;;;;9.38;0.70;;;16.10;99.90;;;;;;4920435;29;20046;-80
2022/09/06 18:52:47;;;;;;;4.03;0.70;;;16.00;99.90;;;;;;4928826;29;20067;-80
2022/09/06 18:55:13;;;;;;;16.42;0.85;;;15.90;99.90;;;;;;4931143;28;20072;-80
2022/09/06 18:57:38;;;;;;;10.25;0.93;;;15.90;99.90;;;;;;4942274;28;21552;-80
2022/09/06 19:00:06;;;;;;;7.63;1.00;;;15.80;99.90;;;;;;4931220;29;20036;-85
2022/09/06 19:02:32;;;;;;;6.47;0.98;;;15.70;99.90;;;;;;4925927;29;20020;-87
2022/09/06 19:04:58;;;;;;;6.40;0.90;;;15.60;99.90;;;;;;4923769;28;20472;-87
2022/09/06 19:07:24;;;;;;;8.18;1.33;;;15.60;99.90;;;;;;4931067;29;20377;-87
2022/09/06 19:09:50;;;;;;;8.13;0.90;;;15.60;99.90;;;;;;4932577;29;20027;-85
2022/09/06 19:12:16;;;;;;;13.13;1.73;;;15.60;99.90;;;;;;4951493;28;20022;-84
2022/09/06 19:14:41;;;;;;;8.50;1.13;;;15.50;99.90;;;;;;4951541;28;20047;-85
2022/09/06 19:17:07;;;;;;;8.50;0.88;;;15.50;99.90;;;;;;4951975;28;20039;-88
2022/09/06 19:19:33;;;;;;;6.70;0.70;;;15.50;99.90;;;;;;4949446;28;20476;-84
2022/09/06 19:21:59;;;;;;;6.57;0.85;;;15.40;99.90;;;;;;4951419;28;20082;-88
2022/09/06 19:24:24;;;;;;;9.18;1.40;;;15.30;99.90;;;;;;4948965;28;20110;-85
2022/09/06 19:26:51;;;;;;;8.32;0.65;;;15.30;99.90;;;;;;4930341;28;20379;-90
2022/09/06 19:29:18;;;;;;;19.15;1.30;;;15.20;99.90;;;;;;4933008;28;20032;-88
2022/09/06 19:31:45;;;;;;;7.43;1.40;;;15.20;99.90;;;;;;4932218;29;20036;-88
2022/09/06 19:34:14;;;;;;;12.38;1.05;;;15.20;99.90;;;;;;4925432;28;20092;-86
2022/09/06 19:36:39;;;;;;;9.07;1.30;;;15.20;99.90;;;;;;4928676;29;20477;-88
2022/09/06 19:39:08;;;;;;;5.20;0.80;;;15.10;99.90;;;;;;4929061;29;20042;-87
2022/09/06 19:41:38;;;;;;;7.20;0.68;;;15.10;99.90;;;;;;4942865;28;20016;-90
2022/09/06 19:44:07;;;;;;;6.90;0.93;;;15.00;99.90;;;;;;4933778;29;20019;-88
2022/09/06 19:46:33;;;;;;;7.72;0.73;;;15.00;99.90;;;;;;4932624;28;20024;-87
2022/09/06 19:48:59;;;;;;;5.50;1.00;;;15.00;99.90;;;;;;4924795;29;20028;-89
2022/09/06 19:51:25;;;;;;;13.13;1.48;;;15.00;99.90;;;;;;4932321;28;20027;-87
2022/09/06 21:55:33;;;;;;;11.23;1.00;;;15.30;99.90;;;;;;5144137;23;20058;-88
2022/09/06 21:57:59;;;;;;;3.75;0.90;;;15.50;99.90;;;;;;4946576;28;20019;-94
2022/09/06 22:00:25;;;;;;;7.25;0.65;;;15.60;99.90;;;;;;4966269;28;20495;-81
2022/09/06 22:02:51;;;;;;;8.50;1.08;;;15.80;99.90;;;;;;4969124;28;20491;-83
2022/09/06 22:05:16;;;;;;;6.90;1.20;;;15.90;99.90;;;;;;4969469;28;20475;-83
2022/09/06 22:07:42;;;;;;;10.60;2.20;;;16.00;99.90;;;;;;4970214;28;20558;-82
2022/09/06 22:10:08;;;;;;;7.97;1.02;;;16.20;99.90;;;;;;4970555;28;20022;-83
2022/09/06 22:12:34;;;;;;;4.53;1.02;;;16.20;99.90;;;;;;4971503;28;20121;-83
2022/09/06 22:14:59;;;;;;;8.48;1.02;;;16.30;99.90;;;;;;4971276;28;20031;-82
2022/09/06 22:17:25;;;;;;;8.63;1.45;;;16.30;99.90;;;;;;4971802;28;20015;-83
2022/09/06 22:19:51;;;;;;;7.30;1.48;;;16.30;99.90;;;;;;4971744;28;20030;-83
2022/09/06 22:22:16;;;;;;;5.32;1.50;;;16.30;99.90;;;;;;4971407;28;20022;-83
2022/09/06 22:24:42;;;;;;;11.07;2.15;;;16.40;99.90;;;;;;4970486;28;20027;-83
2022/09/06 22:27:08;;;;;;;6.88;1.00;;;16.50;99.90;;;;;;4971279;28;20027;-82
2022/09/06 22:29:33;;;;;;;11.70;1.60;;;16.50;99.90;;;;;;4971011;28;20436;-83
2022/09/06 22:31:59;;;;;;;8.82;0.98;;;16.50;99.90;;;;;;4971639;28;20034;-83
2022/09/06 22:34:25;;;;;;;7.15;1.17;;;16.50;99.90;;;;;;4970987;28;20386;-82
2022/09/06 22:36:50;;;;;;;8.32;1.58;;;16.60;99.90;;;;;;4971418;28;20080;-83
2022/09/06 22:39:16;;;;;;;3.83;1.02;;;16.70;99.90;;;;;;4971736;28;20357;-83
2022/09/06 22:41:43;;;;;;;8.70;1.42;;;16.70;99.90;;;;;;4971063;28;20070;-83
2022/09/06 22:44:09;;;;;;;10.27;1.73;;;16.70;99.90;;;;;;4971190;28;20030;-83
2022/09/06 22:46:35;;;;;;;10.70;1.30;;;16.70;99.90;;;;;;4971236;28;20019;-83
2022/09/06 22:49:02;;;;;;;4.10;1.08;;;16.80;99.90;;;;;;4971357;28;20109;-83
2022/09/06 22:51:28;;;;;;;10.40;1.30;;;16.70;99.90;;;;;;4971207;28;20029;-84
2022/09/06 23:56:03;;;;;;;7.07;1.10;;;16.70;99.90;;;;;;4988036;23;20062;-82
2022/09/06 23:58:29;;;;;;;15.13;2.25;;;16.70;99.90;;;;;;4949769;28;20030;-83
